Bělehrad, Srbsko

12:18 CEST 24. Říjen 2014 (GMT +0200)
Beograd-Karaburma | Change Station
CLOSE
Current Station
Osobní povětrnostní stanice
Location: Beograd-Karaburma, SRBIJA
Nadmořská výška: 355 ft
Poblíž povětrnostní stanice

Výška 355 ft 44.81 °N, 20.53 °E | Updated 2 minutes ago

Scattered Clouds
Polojasno
56.5 °F
Pocit jako 56.5 °F
S
2.0
Vítr proměnlivý Vítr od JV
Gusts 6.0 mil/h

Dnes
Vysoké -- | Nízké -- °F
--% Možnost srážek
Včera
Vysoké -- | Nízké -- °F
Precip. -- inčů
7:04 AM 5:38 PM
Nový měsíc, 0% visible
Tlak 29.98 inčů
Viditelnost 6.2 mílí
Zataženo Polojasno 3300 ft
Rosný bod 46 °F
Vlhkost 69%
Dešťové srážky 0.00 inčů
Sněhová pokrývka Není k dispozici
UV záření 3 ze 12
Pyl Není k dispozici
Kvalita ovzduší Není k dispozici
Flu Activity Není k dispozici
METAR LYBE 241000Z 11006KT 090V160 9999 SCT033 12/04 Q1015 NOSIG

More Conditions Fewer Conditions

Tlak 29.98 inčů
Viditelnost 6.2 mílí
Zataženo Polojasno 3300 ft
Rosný bod 46 °F
Vlhkost 69%
Dešťové srážky 0.00 inčů
Sněhová pokrývka Není k dispozici
UV záření 3 ze 12
Pyl Není k dispozici
Kvalita ovzduší Není k dispozici
Flu Activity Není k dispozici
METAR LYBE 241000Z 11006KT 090V160 9999 SCT033 12/04 Q1015 NOSIG

More Conditions Fewer Conditions

10-Day Weather Forecast

Almanac

Astronomie

Oct. 24, 2014 Východ Západ
Skutečný čas 07:04 CEST 17:38 CEST
Občanský soumrak 06:35 CEST 18:08 CEST
Námořní soumrak 06:00 CEST 18:43 CEST
Astronomický soumrak 05:26 CEST 19:16 CEST
Měsíc 07:26 CEST 18:05 CEST
Délka denního světla 11h 33m
Délka dne
10h 33m
Tomorrow will be 2m 55s shorter.
Nový měsíc, 0% of the Moon is Illuminated
Dnes
Nový měsíc
Říj 30
První čtvrť
Lis 6
Úplněk
Lis 14
Ubývající
Lis 22
Nov

Community

WunderPhotos

Upload Photos

1,764,513 snímků staženo!

WunderBlogs® & News

Nearby

Výška sněhu

Not available.

Seizmická činnost

Město Distance Mag. Čas & datum
Žádné zemětřesení v okolí nebylo hlášeno
Minimální zobrazený rozsah je 2.5.

Pobřežní teplota vody

Lokalita Teplota
Stanice nic nehlásí

Poblíž povětrnostní stanice